createdAt,value
2024-02-04T00:00:44.264Z,0.80
2024-02-04T00:01:44.078Z,0.90
2024-02-04T00:02:44.007Z,1.10
2024-02-04T00:03:44.089Z,1.20
2024-02-04T00:04:44.344Z,1.10
2024-02-04T00:05:43.984Z,1.30
2024-02-04T00:06:44.071Z,1.00
2024-02-04T00:07:43.940Z,1.10
2024-02-04T00:08:43.940Z,1.00
2024-02-04T00:09:43.933Z,1.10
2024-02-04T00:10:43.923Z,1.10
2024-02-04T00:11:43.881Z,0.80
2024-02-04T00:12:43.929Z,1.00
2024-02-04T00:13:43.858Z,0.90
2024-02-04T00:14:43.871Z,1.10
2024-02-04T00:15:43.895Z,1.10
2024-02-04T00:16:43.860Z,1.40
2024-02-04T00:17:43.926Z,1.20
2024-02-04T00:18:43.925Z,1.10
2024-02-04T00:19:43.858Z,0.90
2024-02-04T00:20:43.816Z,1.10
2024-02-04T00:21:43.798Z,0.80
2024-02-04T00:22:43.799Z,0.80
2024-02-04T00:23:43.784Z,1.00
2024-02-04T00:24:43.828Z,1.20
2024-02-04T00:25:43.749Z,1.10
2024-02-04T00:26:43.735Z,1.00
2024-02-04T00:27:43.731Z,0.90
2024-02-04T00:28:43.730Z,1.10
2024-02-04T00:29:43.696Z,1.10
2024-02-04T00:30:43.733Z,1.00
2024-02-04T00:31:43.665Z,0.90
2024-02-04T00:32:43.773Z,0.90
2024-02-04T00:33:43.760Z,0.80
2024-02-04T00:34:43.719Z,1.10
2024-02-04T00:35:43.633Z,0.90
2024-02-04T00:36:43.685Z,0.90
2024-02-04T00:37:43.620Z,1.00
2024-02-04T00:38:43.635Z,1.00
2024-02-04T00:39:43.644Z,0.80
2024-02-04T00:40:43.648Z,0.90
2024-02-04T00:41:43.568Z,0.90
2024-02-04T00:42:43.605Z,1.00
2024-02-04T00:43:43.552Z,1.00
2024-02-04T00:44:43.548Z,0.90
2024-02-04T00:45:43.546Z,0.70
2024-02-04T00:46:43.532Z,1.00
2024-02-04T00:47:43.501Z,0.90
2024-02-04T00:48:43.634Z,1.00
2024-02-04T00:49:43.577Z,1.10
2024-02-04T00:50:43.494Z,0.90
2024-02-04T00:51:43.493Z,0.80
2024-02-04T00:52:43.472Z,0.80
2024-02-04T00:53:43.455Z,0.90
2024-02-04T00:54:43.515Z,0.90
2024-02-04T00:55:43.403Z,0.90
2024-02-04T00:56:43.431Z,0.80
2024-02-04T00:57:43.410Z,0.70
2024-02-04T00:58:43.411Z,1.00
2024-02-04T00:59:43.377Z,1.30
2024-02-04T01:00:43.426Z,0.80
2024-02-04T01:01:43.448Z,1.20
2024-02-04T01:02:43.365Z,1.10
2024-02-04T01:03:43.385Z,0.80
2024-02-04T01:04:43.390Z,0.80
2024-02-04T01:05:43.347Z,0.90
2024-02-04T01:06:51.613Z,1.00
2024-02-04T01:07:43.347Z,1.20
2024-02-04T01:08:43.284Z,0.90
2024-02-04T01:09:43.309Z,0.90
2024-02-04T01:10:43.302Z,1.10
2024-02-04T01:11:43.257Z,1.10
2024-02-04T01:12:43.253Z,0.70
2024-02-04T01:13:43.237Z,0.90
2024-02-04T01:14:43.207Z,0.90
2024-02-04T01:15:43.268Z,0.90
2024-02-04T01:16:43.203Z,0.80
2024-02-04T01:17:43.216Z,0.80
2024-02-04T01:18:43.192Z,0.80
2024-02-04T01:19:43.308Z,0.90
2024-02-04T01:20:43.146Z,0.90
2024-02-04T01:21:43.160Z,1.00
2024-02-04T01:22:43.132Z,1.00
2024-02-04T01:23:43.140Z,0.80
2024-02-04T01:24:43.139Z,0.80
2024-02-04T01:25:44.138Z,0.60
2024-02-04T01:26:43.086Z,0.80
2024-02-04T01:27:43.136Z,0.80
2024-02-04T01:28:43.062Z,0.80
2024-02-04T01:29:43.079Z,0.70
2024-02-04T01:30:43.066Z,0.90
2024-02-04T01:31:43.323Z,0.80
2024-02-04T01:32:43.106Z,0.90
2024-02-04T01:33:43.101Z,1.00
2024-02-04T01:34:43.154Z,0.90
2024-02-04T01:35:42.995Z,0.70
2024-02-04T01:36:43.004Z,0.70
2024-02-04T01:37:42.995Z,0.80
2024-02-04T01:38:42.946Z,1.00
2024-02-04T01:39:42.968Z,0.80
2024-02-04T01:40:42.924Z,0.80
2024-02-04T01:41:42.960Z,1.00
2024-02-04T01:42:42.974Z,0.70
2024-02-04T01:43:42.920Z,0.90
2024-02-04T01:44:42.907Z,0.90
2024-02-04T01:45:42.910Z,0.90
2024-02-04T01:46:42.890Z,0.70
2024-02-04T01:47:42.894Z,0.80
2024-02-04T01:48:42.928Z,0.80
2024-02-04T01:49:43.064Z,0.70
2024-02-04T01:50:42.815Z,0.50
2024-02-04T01:51:42.846Z,0.80
2024-02-04T01:52:42.822Z,0.60
2024-02-04T01:53:42.819Z,0.80
2024-02-04T01:54:42.905Z,0.70
2024-02-04T01:55:42.792Z,0.80
2024-02-04T01:56:42.754Z,0.70
2024-02-04T01:57:42.791Z,0.80
2024-02-04T01:58:42.730Z,0.70
2024-02-04T01:59:42.741Z,0.80
2024-02-04T02:00:42.794Z,0.80
2024-02-04T02:01:42.756Z,1.00
2024-02-04T02:02:42.705Z,0.60
2024-02-04T02:03:42.780Z,0.80
2024-02-04T02:04:42.699Z,0.70
2024-02-04T02:05:42.699Z,0.80
2024-02-04T02:06:42.736Z,0.80
2024-02-04T02:07:42.669Z,0.80
2024-02-04T02:08:42.651Z,0.90
2024-02-04T02:09:42.761Z,0.80
2024-02-04T02:10:42.636Z,0.80
2024-02-04T02:11:42.619Z,0.70
2024-02-04T02:12:42.593Z,0.80
2024-02-04T02:13:42.588Z,0.90
2024-02-04T02:14:42.556Z,0.80
2024-02-04T02:15:42.630Z,0.70
2024-02-04T02:16:42.543Z,0.90
2024-02-04T02:17:42.648Z,1.00
2024-02-04T02:18:42.619Z,0.90
2024-02-04T02:19:42.561Z,0.70
2024-02-04T02:20:42.503Z,0.90
2024-02-04T02:21:42.545Z,0.70
2024-02-04T02:22:42.471Z,0.70
2024-02-04T02:23:42.484Z,0.60
2024-02-04T02:24:42.481Z,0.90
2024-02-04T02:25:42.469Z,0.60
2024-02-04T02:26:42.431Z,0.80
2024-02-04T02:27:42.454Z,1.10
2024-02-04T02:28:42.407Z,0.90
2024-02-04T02:29:42.435Z,0.70
2024-02-04T02:30:42.388Z,0.70
2024-02-04T02:31:48.013Z,0.60
2024-02-04T02:32:42.369Z,1.00
2024-02-04T02:33:42.444Z,1.40
2024-02-04T02:34:42.431Z,1.00
2024-02-04T02:35:42.371Z,0.80
2024-02-04T02:36:42.349Z,0.80
2024-02-04T02:37:42.341Z,0.70
2024-02-04T02:38:42.301Z,0.60
2024-02-04T02:39:42.338Z,0.90
2024-02-04T02:40:42.271Z,0.90
2024-02-04T02:41:42.296Z,1.00
2024-02-04T02:42:42.294Z,0.80
2024-02-04T02:43:42.270Z,0.70
2024-02-04T02:44:42.239Z,0.60
2024-02-04T02:45:42.266Z,0.70
2024-02-04T02:46:42.232Z,0.70
2024-02-04T02:47:46.432Z,0.80
2024-02-04T02:48:42.266Z,0.80
2024-02-04T02:49:42.323Z,0.80
2024-02-04T02:50:42.173Z,0.70
2024-02-04T02:51:42.213Z,0.90
2024-02-04T02:52:42.172Z,0.80
2024-02-04T02:53:42.168Z,0.80
2024-02-04T02:54:42.185Z,1.20
2024-02-04T02:55:42.140Z,0.80
2024-02-04T02:56:42.104Z,0.90
2024-02-04T02:57:42.123Z,1.00
2024-02-04T02:58:42.094Z,0.80
2024-02-04T02:59:42.209Z,0.80
2024-02-04T03:00:42.129Z,0.90
2024-02-04T03:01:42.162Z,0.60
2024-02-04T03:02:42.038Z,0.90
2024-02-04T03:03:42.110Z,0.90
2024-02-04T03:04:42.147Z,0.90
2024-02-04T03:05:42.070Z,0.80
2024-02-04T03:06:42.052Z,1.10
2024-02-04T03:07:42.063Z,1.00
2024-02-04T03:08:42.007Z,1.00
2024-02-04T03:09:42.030Z,0.80
2024-02-04T03:10:41.958Z,0.90
2024-02-04T03:11:41.970Z,1.00
2024-02-04T03:12:41.995Z,0.90
2024-02-04T03:13:41.935Z,0.90
2024-02-04T03:14:41.941Z,1.20
2024-02-04T03:15:41.968Z,1.20
2024-02-04T03:16:41.880Z,1.30
2024-02-04T03:17:41.933Z,1.10
2024-02-04T03:18:41.893Z,0.90
2024-02-04T03:19:41.926Z,1.10
2024-02-04T03:20:41.855Z,0.90
2024-02-04T03:21:41.892Z,1.20
2024-02-04T03:22:41.830Z,1.00
2024-02-04T03:23:41.826Z,1.00
2024-02-04T03:24:41.838Z,0.90
2024-02-04T03:25:41.823Z,0.90
2024-02-04T03:26:41.792Z,1.20
2024-02-04T03:27:41.848Z,0.60
2024-02-04T03:28:41.756Z,0.90
2024-02-04T03:29:41.754Z,1.00
2024-02-04T03:30:41.774Z,1.00
2024-02-04T03:31:41.747Z,1.00
2024-02-04T03:32:41.922Z,1.00
2024-02-04T03:33:41.817Z,0.90
2024-02-04T03:34:41.720Z,1.10
2024-02-04T03:35:41.717Z,0.90
2024-02-04T03:36:41.704Z,1.20
2024-02-04T03:37:41.696Z,1.00
2024-02-04T03:38:41.648Z,1.00
2024-02-04T03:39:41.696Z,1.10
2024-02-04T03:40:41.621Z,1.00
2024-02-04T03:41:41.671Z,0.90
2024-02-04T03:42:41.696Z,1.30
2024-02-04T03:43:41.632Z,1.20
2024-02-04T03:44:41.578Z,1.40
2024-02-04T03:45:41.624Z,0.70
2024-02-04T03:46:41.626Z,1.10
2024-02-04T03:47:41.593Z,1.10
2024-02-04T03:48:41.664Z,1.20
2024-02-04T03:49:41.750Z,0.80
2024-02-04T03:50:41.516Z,0.90
2024-02-04T03:51:41.617Z,1.00
2024-02-04T03:52:41.495Z,1.40
2024-02-04T03:53:41.512Z,0.90
2024-02-04T03:54:41.530Z,1.00
2024-02-04T03:55:41.497Z,1.20
2024-02-04T03:56:41.453Z,1.10
2024-02-04T03:57:41.488Z,1.00
2024-02-04T03:58:41.455Z,0.90
2024-02-04T03:59:41.478Z,1.00
2024-02-04T04:00:41.462Z,1.10
2024-02-04T04:01:41.704Z,1.10
2024-02-04T04:02:41.385Z,1.10
2024-02-04T04:03:41.478Z,1.10
2024-02-04T04:04:41.450Z,1.00
2024-02-04T04:05:41.518Z,1.00
2024-02-04T04:06:41.424Z,1.10
2024-02-04T04:07:41.401Z,1.40
2024-02-04T04:08:41.338Z,1.30
2024-02-04T04:09:41.385Z,1.30
2024-02-04T04:10:41.300Z,1.00
2024-02-04T04:11:41.306Z,1.60
2024-02-04T04:12:41.285Z,1.10
2024-02-04T04:13:41.281Z,1.20
2024-02-04T04:14:41.278Z,0.90
2024-02-04T04:15:41.295Z,1.30
2024-02-04T04:16:41.233Z,1.20
2024-02-04T04:17:41.260Z,1.30
2024-02-04T04:18:41.335Z,1.40
2024-02-04T04:19:41.391Z,1.40
2024-02-04T04:20:41.196Z,1.30
2024-02-04T04:21:41.323Z,1.00
2024-02-04T04:22:41.179Z,1.30
2024-02-04T04:23:41.168Z,1.30
2024-02-04T04:24:41.145Z,1.60
2024-02-04T04:25:41.153Z,1.10
2024-02-04T04:26:41.127Z,1.10
2024-02-04T04:27:41.152Z,1.00
2024-02-04T04:28:41.103Z,1.00
2024-02-04T04:29:41.111Z,0.90
2024-02-04T04:30:41.088Z,1.30
2024-02-04T04:31:41.097Z,1.10
2024-02-04T04:32:41.143Z,1.50
2024-02-04T04:33:41.239Z,1.30
2024-02-04T04:34:41.079Z,1.00
2024-02-04T04:35:41.056Z,0.90
2024-02-04T04:36:41.032Z,1.10
2024-02-04T04:37:41.057Z,1.10
2024-02-04T04:38:40.991Z,1.10
2024-02-04T04:39:41.034Z,0.90
2024-02-04T04:40:40.968Z,1.20
2024-02-04T04:41:40.983Z,1.10
2024-02-04T04:42:40.994Z,1.00
2024-02-04T04:43:40.949Z,1.10
2024-02-04T04:44:40.932Z,0.90
2024-02-04T04:45:40.978Z,1.20
2024-02-04T04:46:40.906Z,0.90
2024-02-04T04:47:40.974Z,0.90
2024-02-04T04:48:41.107Z,1.20
2024-02-04T04:49:40.992Z,1.30
2024-02-04T04:50:40.864Z,0.90
2024-02-04T04:51:40.916Z,1.20
2024-02-04T04:52:40.844Z,1.20
2024-02-04T04:53:40.879Z,1.20
2024-02-04T04:54:40.842Z,1.00
2024-02-04T04:55:40.828Z,1.30
2024-02-04T04:56:43.116Z,0.90
2024-02-04T04:57:40.888Z,1.20
2024-02-04T04:58:40.794Z,1.00
2024-02-04T04:59:40.784Z,0.70
2024-02-04T05:00:41.002Z,0.90
2024-02-04T05:01:41.215Z,0.90
2024-02-04T05:02:40.742Z,1.10
2024-02-04T05:03:40.807Z,0.90
2024-02-04T05:04:40.777Z,0.90
2024-02-04T05:05:40.724Z,1.00
2024-02-04T05:06:40.886Z,1.00
2024-02-04T05:07:41.019Z,0.70
2024-02-04T05:08:40.682Z,0.90
2024-02-04T05:09:40.705Z,0.70
2024-02-04T05:10:40.660Z,1.00
2024-02-04T05:11:40.690Z,1.20
2024-02-04T05:12:40.653Z,0.90
2024-02-04T05:13:41.005Z,0.80
2024-02-04T05:14:40.630Z,0.80
2024-02-04T05:15:40.660Z,1.30
2024-02-04T05:16:40.599Z,0.70
2024-02-04T05:17:40.755Z,0.80
2024-02-04T05:18:40.693Z,1.10
2024-02-04T05:19:40.633Z,0.70
2024-02-04T05:20:40.540Z,0.90
2024-02-04T05:21:40.810Z,0.80
2024-02-04T05:22:40.690Z,0.80
2024-02-04T05:23:40.542Z,0.80
2024-02-04T05:24:40.510Z,0.60
2024-02-04T05:25:40.518Z,1.00
2024-02-04T05:26:40.845Z,0.70
2024-02-04T05:27:42.577Z,0.70
2024-02-04T05:28:40.507Z,0.60
2024-02-04T05:29:40.470Z,0.70
2024-02-04T05:30:40.565Z,0.70
2024-02-04T05:31:40.428Z,0.80
2024-02-04T05:32:40.481Z,0.50
2024-02-04T05:33:40.447Z,0.70
2024-02-04T05:34:41.016Z,0.70
2024-02-04T05:35:40.389Z,0.70
2024-02-04T05:36:40.430Z,0.70
2024-02-04T05:37:40.356Z,1.00
2024-02-04T05:38:40.376Z,0.70
2024-02-04T05:39:40.362Z,0.70
2024-02-04T05:40:40.345Z,0.70
2024-02-04T05:41:40.320Z,0.70
2024-02-04T05:42:40.376Z,0.70
2024-02-04T05:43:40.292Z,0.60
2024-02-04T05:44:40.312Z,0.70
2024-02-04T05:45:40.318Z,0.60
2024-02-04T05:46:40.629Z,0.70
2024-02-04T05:47:40.317Z,0.60
2024-02-04T05:48:40.517Z,0.50
2024-02-04T05:49:40.320Z,0.70
2024-02-04T05:50:40.471Z,0.70
2024-02-04T05:51:40.269Z,0.70
2024-02-04T05:52:40.244Z,0.50
2024-02-04T05:53:40.184Z,0.60
2024-02-04T05:54:40.228Z,0.70
2024-02-04T05:55:40.162Z,0.80
2024-02-04T05:56:40.168Z,0.60
2024-02-04T05:57:40.205Z,0.60
2024-02-04T05:58:40.182Z,0.50
2024-02-04T05:59:40.126Z,0.80
2024-02-04T06:00:40.145Z,0.60
2024-02-04T06:01:40.096Z,0.40
2024-02-04T06:02:40.231Z,0.70
2024-02-04T06:03:40.173Z,0.40
2024-02-04T06:04:40.162Z,0.60
2024-02-04T06:05:40.084Z,0.50
2024-02-04T06:06:40.168Z,0.60
2024-02-04T06:07:40.034Z,0.40
2024-02-04T06:08:40.049Z,0.60
2024-02-04T06:09:40.047Z,0.40
2024-02-04T06:10:40.032Z,0.50
2024-02-04T06:11:39.994Z,0.50
2024-02-04T06:12:40.049Z,0.40
2024-02-04T06:13:39.981Z,0.60
2024-02-04T06:14:39.975Z,0.50
2024-02-04T06:15:40.010Z,0.80
2024-02-04T06:16:39.948Z,0.40
2024-02-04T06:17:39.953Z,0.60
2024-02-04T06:18:40.041Z,0.50
2024-02-04T06:19:40.049Z,0.40
2024-02-04T06:20:39.942Z,0.50
2024-02-04T06:21:39.853Z,0.50
2024-02-04T06:22:39.842Z,0.60
2024-02-04T06:23:39.854Z,0.60
2024-02-04T06:24:39.952Z,0.40
2024-02-04T06:25:40.021Z,0.50
2024-02-04T06:26:39.878Z,0.50
2024-02-04T06:27:39.861Z,0.60
2024-02-04T06:28:39.925Z,0.60
2024-02-04T06:29:39.766Z,0.70
2024-02-04T06:30:39.812Z,0.50
2024-02-04T06:31:39.784Z,0.60
2024-02-04T06:32:39.851Z,0.60
2024-02-04T06:33:39.809Z,0.50
2024-02-04T06:34:39.884Z,0.60
2024-02-04T06:35:39.695Z,0.40
2024-02-04T06:36:39.822Z,0.50
2024-02-04T06:37:39.724Z,0.50
2024-02-04T06:38:39.676Z,0.50
2024-02-04T06:39:39.679Z,0.80
2024-02-04T06:40:39.634Z,0.60
2024-02-04T06:41:39.615Z,0.60
2024-02-04T06:42:39.692Z,0.50
2024-02-04T06:43:39.577Z,0.50
2024-02-04T06:44:39.617Z,0.70
2024-02-04T06:45:39.590Z,0.50
2024-02-04T06:46:39.576Z,0.50
2024-02-04T06:47:39.588Z,0.60
2024-02-04T06:48:39.618Z,0.50
2024-02-04T06:49:39.632Z,0.70
2024-02-04T06:50:39.606Z,0.70
2024-02-04T06:51:39.739Z,0.70
2024-02-04T06:52:39.512Z,0.50
2024-02-04T06:53:39.482Z,0.50
2024-02-04T06:54:39.591Z,0.70
2024-02-04T06:55:39.460Z,0.70
2024-02-04T06:56:39.479Z,0.70
2024-02-04T06:57:39.437Z,0.50
2024-02-04T06:58:39.434Z,0.50
2024-02-04T06:59:39.413Z,0.50
2024-02-04T07:00:39.696Z,0.50
2024-02-04T07:01:39.549Z,0.60
2024-02-04T07:02:39.408Z,0.60
2024-02-04T07:03:39.549Z,0.70
2024-02-04T07:04:39.446Z,0.60
2024-02-04T07:05:39.363Z,0.50
2024-02-04T07:06:39.453Z,0.60
2024-02-04T07:07:39.320Z,0.70
2024-02-04T07:08:39.368Z,0.60
2024-02-04T07:09:39.354Z,0.60
2024-02-04T07:10:39.317Z,0.50
2024-02-04T07:11:39.279Z,0.50
2024-02-04T07:12:39.322Z,0.60
2024-02-04T07:13:39.259Z,0.60
2024-02-04T07:14:39.266Z,0.50
2024-02-04T07:15:39.331Z,0.80
2024-02-04T07:16:39.237Z,0.50
2024-02-04T07:17:39.252Z,0.60
2024-02-04T07:18:39.343Z,0.60
2024-02-04T07:19:39.255Z,0.70
2024-02-04T07:20:39.242Z,0.50
2024-02-04T07:21:39.198Z,0.60
2024-02-04T07:22:39.200Z,0.40
2024-02-04T07:23:39.174Z,0.50
2024-02-04T07:24:39.200Z,0.40
2024-02-04T07:25:39.157Z,0.50
2024-02-04T07:26:39.190Z,0.40
2024-02-04T07:27:39.119Z,0.60
2024-02-04T07:28:39.144Z,0.50
2024-02-04T07:29:39.156Z,0.60
2024-02-04T07:30:39.139Z,0.60
2024-02-04T07:31:39.177Z,0.60
2024-02-04T07:32:39.415Z,0.60
2024-02-04T07:33:39.159Z,0.50
2024-02-04T07:34:39.241Z,0.70
2024-02-04T07:35:39.031Z,0.40
2024-02-04T07:36:39.047Z,0.60
2024-02-04T07:37:39.008Z,0.50
2024-02-04T07:38:39.026Z,0.50
2024-02-04T07:39:39.041Z,0.50
2024-02-04T07:40:38.991Z,0.50
2024-02-04T07:41:38.981Z,0.40
2024-02-04T07:42:39.023Z,0.40
2024-02-04T07:43:38.935Z,0.40
2024-02-04T07:44:38.955Z,0.50
2024-02-04T07:45:39.025Z,0.60
2024-02-04T07:46:38.982Z,0.40
2024-02-04T07:47:38.902Z,0.40
2024-02-04T07:48:39.190Z,0.50
2024-02-04T07:49:38.927Z,0.70
2024-02-04T07:50:38.897Z,0.60
2024-02-04T07:51:38.919Z,0.50
2024-02-04T07:52:41.074Z,0.40
2024-02-04T07:53:38.835Z,0.60
2024-02-04T07:54:38.946Z,0.50
2024-02-04T07:55:38.819Z,0.70
2024-02-04T07:56:38.864Z,0.60
2024-02-04T07:57:38.827Z,0.40
2024-02-04T07:58:38.818Z,0.50
2024-02-04T07:59:38.771Z,0.30
2024-02-04T08:00:38.902Z,0.40
2024-02-04T08:01:38.853Z,0.60
2024-02-04T08:02:38.783Z,0.50
2024-02-04T08:03:38.895Z,0.40
2024-02-04T08:04:38.803Z,0.50
2024-02-04T08:05:38.699Z,0.40
2024-02-04T08:06:38.796Z,0.70
2024-02-04T08:07:38.775Z,0.50
2024-02-04T08:08:38.713Z,0.60
2024-02-04T08:09:38.683Z,0.30
2024-02-04T08:10:38.696Z,0.50
2024-02-04T08:11:38.637Z,0.50
2024-02-04T08:12:38.695Z,0.70
2024-02-04T08:13:38.634Z,0.40
2024-02-04T08:14:38.635Z,0.60
2024-02-04T08:15:38.719Z,0.50
2024-02-04T08:16:38.615Z,0.60
2024-02-04T08:17:38.588Z,0.30
2024-02-04T08:18:38.654Z,0.80
2024-02-04T08:19:38.687Z,0.40
2024-02-04T08:20:38.577Z,0.50
2024-02-04T08:21:38.556Z,0.50
2024-02-04T08:22:38.528Z,0.70
2024-02-04T08:23:38.502Z,0.50
2024-02-04T08:24:38.564Z,0.80
2024-02-04T08:25:38.487Z,0.50
2024-02-04T08:26:38.503Z,0.60
2024-02-04T08:27:38.525Z,0.60
2024-02-04T08:28:38.484Z,0.60
2024-02-04T08:29:38.440Z,0.60
2024-02-04T08:30:38.487Z,0.50
2024-02-04T08:31:38.425Z,0.70
2024-02-04T08:32:38.470Z,0.70
2024-02-04T08:33:38.465Z,0.60
2024-02-04T08:34:38.484Z,0.50
2024-02-04T08:35:38.401Z,0.70
2024-02-04T08:36:38.460Z,0.50
2024-02-04T08:37:38.352Z,0.70
2024-02-04T08:38:38.352Z,0.50
2024-02-04T08:39:38.504Z,0.60
2024-02-04T08:40:38.436Z,0.80
2024-02-04T08:41:38.344Z,0.70
2024-02-04T08:42:38.354Z,0.60
2024-02-04T08:43:38.301Z,0.70
2024-02-04T08:44:40.082Z,0.50
2024-02-04T08:45:38.284Z,0.60
2024-02-04T08:46:38.307Z,0.50
2024-02-04T08:47:38.251Z,0.60
2024-02-04T08:48:38.460Z,0.40
2024-02-04T08:49:38.304Z,0.70
2024-02-04T08:50:38.259Z,0.40
2024-02-04T08:51:38.290Z,0.60
2024-02-04T08:52:38.267Z,0.50
2024-02-04T08:53:38.189Z,0.50
2024-02-04T08:54:38.327Z,0.60
2024-02-04T08:55:38.159Z,0.50
2024-02-04T08:56:38.174Z,0.50
2024-02-04T08:57:38.174Z,0.50
2024-02-04T08:58:38.258Z,0.50
2024-02-04T08:59:38.139Z,0.70
2024-02-04T09:00:38.196Z,0.50
2024-02-04T09:01:38.170Z,0.50
2024-02-04T09:02:38.118Z,0.40
2024-02-04T09:03:38.316Z,0.50
2024-02-04T09:04:38.137Z,0.60
2024-02-04T09:05:38.061Z,0.50
2024-02-04T09:06:38.196Z,0.50
2024-02-04T09:07:38.117Z,0.40
2024-02-04T09:08:38.072Z,0.50
2024-02-04T09:09:38.032Z,0.40
2024-02-04T09:10:38.031Z,0.50
2024-02-04T09:11:37.998Z,0.40
2024-02-04T09:12:38.054Z,0.60
2024-02-04T09:13:38.089Z,0.50
2024-02-04T09:14:38.072Z,0.50
2024-02-04T09:15:38.049Z,0.40
2024-02-04T09:16:38.057Z,0.60
2024-02-04T09:17:37.988Z,0.40
2024-02-04T09:18:38.156Z,0.50
2024-02-04T09:19:41.685Z,0.50
2024-02-04T09:20:38.104Z,0.70
2024-02-04T09:21:37.917Z,0.70
2024-02-04T09:22:37.955Z,0.60
2024-02-04T09:23:37.900Z,0.50
2024-02-04T09:24:38.024Z,0.50
2024-02-04T09:25:37.909Z,0.50
2024-02-04T09:26:37.845Z,0.50
2024-02-04T09:27:37.959Z,0.70
2024-02-04T09:28:37.890Z,0.50
2024-02-04T09:29:37.927Z,0.60
2024-02-04T09:30:37.967Z,0.50
2024-02-04T09:31:37.858Z,0.50
2024-02-04T09:32:38.179Z,0.40
2024-02-04T09:33:37.948Z,0.50
2024-02-04T09:34:38.139Z,0.50
2024-02-04T09:35:38.015Z,0.50
2024-02-04T09:36:37.865Z,0.50
2024-02-04T09:37:37.810Z,0.50
2024-02-04T09:38:37.778Z,0.50
2024-02-04T09:39:37.731Z,0.60
2024-02-04T09:40:37.788Z,0.50
2024-02-04T09:41:37.713Z,0.60
2024-02-04T09:42:37.696Z,0.50
2024-02-04T09:43:39.024Z,0.70
2024-02-04T09:44:37.681Z,0.70
2024-02-04T09:45:37.705Z,0.70
2024-02-04T09:46:37.719Z,0.40
2024-02-04T09:47:37.815Z,0.60
2024-02-04T09:48:37.705Z,0.80
2024-02-04T09:49:37.892Z,0.80
2024-02-04T09:50:37.649Z,0.60
2024-02-04T09:51:37.716Z,0.70
2024-02-04T09:52:37.613Z,0.50
2024-02-04T09:53:37.667Z,0.60
2024-02-04T09:54:37.607Z,0.50
2024-02-04T09:55:37.618Z,0.90
2024-02-04T09:56:37.572Z,1.10
2024-02-04T09:57:37.518Z,0.90
2024-02-04T09:58:37.621Z,0.60
2024-02-04T09:59:37.511Z,0.60
2024-02-04T10:00:37.627Z,0.50
2024-02-04T10:01:37.598Z,0.60
2024-02-04T10:02:37.530Z,0.70
2024-02-04T10:03:37.552Z,0.80
2024-02-04T10:04:37.554Z,0.40
2024-02-04T10:05:37.463Z,0.70
2024-02-04T10:06:37.642Z,0.90
2024-02-04T10:07:37.528Z,0.60
2024-02-04T10:08:37.540Z,0.50
2024-02-04T10:09:37.393Z,0.50
2024-02-04T10:10:37.528Z,0.60
2024-02-04T10:11:37.382Z,0.50
2024-02-04T10:12:37.371Z,0.60
2024-02-04T10:13:37.344Z,0.40
2024-02-04T10:14:37.314Z,0.50
2024-02-04T10:15:37.326Z,0.50
2024-02-04T10:16:37.291Z,0.60
2024-02-04T10:17:37.327Z,0.40
2024-02-04T10:18:37.305Z,0.60
2024-02-04T10:19:37.521Z,0.40
2024-02-04T10:20:37.230Z,0.60
2024-02-04T10:21:37.325Z,0.40
2024-02-04T10:22:37.225Z,0.60
2024-02-04T10:23:37.226Z,0.40
2024-02-04T10:24:37.226Z,0.60
2024-02-04T10:25:37.210Z,0.60
2024-02-04T10:26:37.171Z,0.50
2024-02-04T10:27:38.171Z,0.30
2024-02-04T10:28:37.143Z,0.60
2024-02-04T10:29:37.160Z,0.30
2024-02-04T10:30:37.135Z,0.50
2024-02-04T10:31:37.186Z,0.50
2024-02-04T10:32:37.123Z,0.50
2024-02-04T10:33:37.193Z,0.60
2024-02-04T10:34:37.290Z,0.40
2024-02-04T10:35:37.107Z,0.60
2024-02-04T10:36:37.134Z,0.50
2024-02-04T10:37:37.087Z,0.70
2024-02-04T10:38:37.037Z,0.50
2024-02-04T10:39:37.107Z,0.60
2024-02-04T10:40:37.031Z,0.40
2024-02-04T10:41:37.048Z,0.60
2024-02-04T10:42:37.014Z,0.40
2024-02-04T10:43:36.994Z,0.50
2024-02-04T10:44:36.978Z,0.50
2024-02-04T10:45:36.991Z,0.50
2024-02-04T10:46:36.974Z,0.40
2024-02-04T10:47:37.063Z,0.50
2024-02-04T10:48:36.980Z,0.50
2024-02-04T10:49:37.030Z,0.50
2024-02-04T10:50:36.918Z,0.50
2024-02-04T10:51:36.966Z,0.40
2024-02-04T10:52:36.887Z,0.60
2024-02-04T10:53:36.883Z,0.60
2024-02-04T10:54:36.882Z,0.40
2024-02-04T10:55:36.875Z,0.50
2024-02-04T10:56:36.892Z,0.40
2024-02-04T10:57:36.924Z,0.50
2024-02-04T10:58:36.816Z,0.50
2024-02-04T10:59:36.819Z,0.50
2024-02-04T11:00:36.898Z,0.50
2024-02-04T11:01:36.906Z,0.40
2024-02-04T11:02:36.768Z,0.80
2024-02-04T11:03:36.837Z,0.50
2024-02-04T11:04:36.840Z,0.60
2024-02-04T11:05:36.822Z,0.60
2024-02-04T11:06:36.779Z,0.70
2024-02-04T11:07:36.769Z,0.50
2024-02-04T11:08:36.741Z,0.60
2024-02-04T11:09:36.726Z,0.60
2024-02-04T11:10:36.681Z,0.60
2024-02-04T11:11:36.703Z,0.50
2024-02-04T11:12:36.758Z,0.40
2024-02-04T11:13:36.690Z,0.50
2024-02-04T11:14:36.637Z,0.50
2024-02-04T11:15:36.670Z,0.50
2024-02-04T11:16:36.612Z,0.40
2024-02-04T11:17:36.639Z,0.50
2024-02-04T11:18:36.811Z,0.40
2024-02-04T11:19:36.746Z,0.60
2024-02-04T11:20:36.574Z,0.40
2024-02-04T11:21:36.596Z,0.50
2024-02-04T11:22:36.561Z,0.50
2024-02-04T11:23:36.587Z,0.50
2024-02-04T11:24:36.544Z,0.40
2024-02-04T11:25:36.552Z,0.80
2024-02-04T11:26:36.515Z,0.40
2024-02-04T11:27:36.551Z,0.50
2024-02-04T11:28:36.642Z,0.40
2024-02-04T11:29:36.586Z,0.40
2024-02-04T11:30:36.595Z,0.50
2024-02-04T11:31:36.507Z,0.50
2024-02-04T11:32:36.520Z,0.60
2024-02-04T11:33:36.623Z,0.50
2024-02-04T11:34:36.566Z,0.40
2024-02-04T11:35:36.743Z,0.40
2024-02-04T11:36:36.431Z,0.60
2024-02-04T11:37:36.487Z,0.70
2024-02-04T11:38:36.476Z,0.80
2024-02-04T11:39:36.432Z,0.60
2024-02-04T11:40:36.439Z,0.70
2024-02-04T11:41:36.438Z,0.60
2024-02-04T11:42:36.458Z,0.70
2024-02-04T11:43:36.738Z,0.50
2024-02-04T11:44:36.342Z,0.50
2024-02-04T11:45:36.382Z,0.50
2024-02-04T11:46:36.366Z,0.60
2024-02-04T11:47:36.473Z,0.50
2024-02-04T11:48:36.701Z,0.50
2024-02-04T11:49:36.990Z,0.50
2024-02-04T11:50:36.726Z,0.60
2024-02-04T11:51:36.360Z,0.30
2024-02-04T11:52:36.277Z,0.60
2024-02-04T11:53:36.517Z,0.40
2024-02-04T11:54:36.283Z,0.50
2024-02-04T11:55:36.838Z,0.40
2024-02-04T11:56:36.176Z,0.50
2024-02-04T11:57:36.474Z,0.50
2024-02-04T11:58:36.198Z,0.60
2024-02-04T11:59:36.169Z,0.50
2024-02-04T12:00:36.187Z,0.50
2024-02-04T12:01:36.451Z,0.60
2024-02-04T12:02:36.116Z,0.60
2024-02-04T12:03:36.153Z,0.60
2024-02-04T12:04:36.123Z,0.60
2024-02-04T12:05:36.133Z,0.70
2024-02-04T12:06:36.098Z,0.60
2024-02-04T12:07:36.479Z,0.60
2024-02-04T12:08:36.057Z,0.50
2024-02-04T12:09:36.081Z,0.60
2024-02-04T12:10:36.041Z,0.80
2024-02-04T12:11:36.067Z,0.60
2024-02-04T12:12:36.040Z,0.50
2024-02-04T12:13:36.011Z,0.60
2024-02-04T12:14:35.982Z,0.50
2024-02-04T12:15:36.032Z,0.70
2024-02-04T12:16:35.984Z,0.40
2024-02-04T12:17:36.048Z,0.70
2024-02-04T12:18:36.075Z,0.60
2024-02-04T12:19:36.056Z,0.60
2024-02-04T12:20:36.009Z,0.50
2024-02-04T12:21:35.989Z,0.50
2024-02-04T12:22:35.942Z,0.60
2024-02-04T12:23:35.958Z,0.50
2024-02-04T12:24:35.957Z,0.60
2024-02-04T12:25:35.904Z,0.50
2024-02-04T12:26:35.906Z,0.50
2024-02-04T12:27:35.975Z,0.50
2024-02-04T12:28:35.922Z,0.70
2024-02-04T12:29:36.003Z,0.50
2024-02-04T12:30:35.854Z,0.60
2024-02-04T12:31:35.912Z,0.50
2024-02-04T12:32:36.064Z,0.60
2024-02-04T12:33:36.031Z,0.70
2024-02-04T12:34:36.061Z,0.70
2024-02-04T12:35:35.771Z,0.70
2024-02-04T12:36:35.772Z,0.60
2024-02-04T12:37:35.763Z,0.60
2024-02-04T12:38:35.752Z,1.30
2024-02-04T12:39:35.824Z,0.70
2024-02-04T12:40:35.709Z,0.50
2024-02-04T12:41:35.717Z,0.50
2024-02-04T12:42:35.717Z,0.60
2024-02-04T12:43:35.714Z,0.50
2024-02-04T12:44:35.661Z,0.60
2024-02-04T12:45:35.711Z,0.50
2024-02-04T12:46:35.633Z,0.60
2024-02-04T12:47:35.699Z,0.50
2024-02-04T12:48:35.670Z,0.50
2024-02-04T12:49:35.716Z,0.70
2024-02-04T12:50:35.604Z,0.60
2024-02-04T12:51:36.067Z,0.60
2024-02-04T12:52:35.586Z,0.60
2024-02-04T12:53:35.596Z,0.70
2024-02-04T12:54:35.583Z,0.60
2024-02-04T12:55:35.567Z,0.60
2024-02-04T12:56:35.528Z,0.70
2024-02-04T12:57:35.596Z,0.70
2024-02-04T12:58:35.505Z,0.80
2024-02-04T12:59:35.775Z,0.40
2024-02-04T13:00:35.612Z,0.50
2024-02-04T13:01:35.554Z,0.60
2024-02-04T13:02:35.476Z,0.60
2024-02-04T13:03:35.509Z,0.60
2024-02-04T13:04:35.578Z,0.70
2024-02-04T13:05:35.463Z,0.70
2024-02-04T13:06:35.495Z,0.70
2024-02-04T13:07:35.526Z,0.50
2024-02-04T13:08:35.395Z,0.60
2024-02-04T13:09:35.453Z,0.60
2024-02-04T13:10:35.832Z,0.50
2024-02-04T13:11:35.406Z,0.60
2024-02-04T13:12:35.365Z,0.70
2024-02-04T13:13:35.373Z,0.50
2024-02-04T13:14:35.337Z,0.70
2024-02-04T13:15:35.420Z,0.60
2024-02-04T13:16:35.312Z,0.70
2024-02-04T13:17:35.343Z,0.40
2024-02-04T13:18:35.369Z,0.60